Blue Star 1 — SWET — position and weather

sailwx.info

Track history (hours):
 
Tides and Currents Weather Stations Pressure Air Temp Water Temp Dewpoint Dewpoint Depression Visibility Wind Speed Wind Dir Waves Ship Positions

Blue Star 1

Last reported at 2015-Aug-29 19:28 UTC. Time now 2015-Aug-30 14:04 UTC.
Position N 37°37' E 024°05'.

Length 176 m; draft 6.5 m.

Type: Passenger vessel. MMSI: 239710000.

Date/timePositionNaut miles runAvg speedWind from/ knotsBaromVisibWave heightAir tempDewpointWater temp
2015-Aug-29 19:28N 37°37' E 024°05'2123.6
2015-Aug-29 18:34N 37°44' E 023°40'1212.3
2015-Aug-29 17:33N 37°56' E 023°38'0 0.0
2015-Aug-29 16:33N 37°56' E 023°38'0 0.0
2015-Aug-29 15:33N 37°56' E 023°38'1212.5
2015-Aug-29 14:33N 37°45' E 023°43'2621.4
2015-Aug-29 13:20N 37°44' E 024°16'15 0.8
2015-Aug-28 19:16N 37°37' E 023°58'1724.0
2015-Aug-28 18:34N 37°45' E 023°39'1212.0
2015-Aug-28 17:34N 37°56' E 023°38'0 0.0
2015-Aug-28 16:33N 37°56' E 023°38'0 0.0
2015-Aug-28 15:34N 37°56' E 023°38'10 9.8
2015-Aug-28 14:34N 37°47' E 023°41'2721.8
2015-Aug-28 13:20N 37°43' E 024°15'2226.4
2015-Aug-28 12:30N 37°57' E 024°37'38 2.2
2015-Aug-27 19:21N 37°37' E 023°56'1721.1
2015-Aug-27 18:34N 37°47' E 023°38'9 9.2
2015-Aug-27 17:33N 37°56' E 023°38'0 0.0
2015-Aug-27 16:33N 37°56' E 023°38'0 0.0
2015-Aug-27 15:33N 37°56' E 023°38'0 0.0
2015-Aug-27 14:33N 37°56' E 023°38'0 0.0
2015-Aug-27 13:33N 37°56' E 023°38'0 0.0
2015-Aug-27 12:33N 37°56' E 023°38'0 0.0
2015-Aug-27 11:33N 37°56' E 023°38'0 0.0
2015-Aug-27 10:33N 37°56' E 023°38'0 0.0
2015-Aug-27 09:33N 37°56' E 023°38'0 0.0
2015-Aug-27 08:33N 37°56' E 023°38'0 0.0
2015-Aug-27 07:33N 37°56' E 023°38'0 0.0
2015-Aug-27 06:33N 37°56' E 023°38'1 0.7
2015-Aug-27 05:33N 37°56' E 023°37'2019.9
2015-Aug-27 04:33N 37°39' E 023°50'5024.9
2015-Aug-27 02:33N 37°32' E 024°53'2524.6
2015-Aug-27 01:33N 37°34' E 025°23'17611.4
2015-Aug-26 10:08N 40°26' E 024°34'1526.2
2015-Aug-26 09:34N 40°39' E 024°25'1616.4
2015-Aug-26 08:34N 40°56' E 024°25'0 0.0
2015-Aug-26 07:33N 40°56' E 024°25'0 0.0
2015-Aug-26 06:34N 40°56' E 024°25'1313.2
2015-Aug-26 05:34N 40°43' E 024°25'2825.8
2015-Aug-26 04:28N 40°17' E 024°42'16611.9
2015-Aug-25 14:34N 37°38' E 025°41'2525.4
2015-Aug-25 13:34N 37°30' E 025°10'5525.0
2015-Aug-25 11:22N 37°34' E 024°02'2025.1
2015-Aug-25 10:34N 37°44' E 023°39'1212.4
2015-Aug-25 09:33N 37°56' E 023°38'0 0.0
2015-Aug-25 08:33N 37°56' E 023°38'0 0.0
2015-Aug-25 07:33N 37°56' E 023°38'0 0.0
2015-Aug-25 06:33N 37°56' E 023°38'0 0.0
2015-Aug-25 05:33N 37°56' E 023°38'0 0.0
2015-Aug-25 04:33N 37°56' E 023°38'0 0.0
2015-Aug-25 03:33N 37°56' E 023°38'1010.2
2015-Aug-25 02:33N 37°47' E 023°42'2120.5
2015-Aug-25 01:32N 37°37' E 024°05'2522.9
2015-Aug-25 00:26N 37°52' E 024°30'31 1.1
2015-Aug-23 19:31N 37°37' E 023°56'1717.9
2015-Aug-23 18:34N 37°48' E 023°38'9 8.8
2015-Aug-23 17:34N 37°56' E 023°38'0 0.0
2015-Aug-23 16:33N 37°56' E 023°38'1515.0
2015-Aug-23 15:34N 37°43' E 023°45'2423.1
2015-Aug-23 14:31N 37°43' E 024°15'17 1.0
2015-Aug-22 20:32N 37°54' E 024°32'2725.6
2015-Aug-22 19:29N 37°37' E 024°05'2223.4
2015-Aug-22 18:33N 37°45' E 023°39'1211.5
2015-Aug-22 17:34N 37°56' E 023°38'0 0.0
2015-Aug-22 16:34N 37°56' E 023°38'0 0.0
2015-Aug-22 15:34N 37°56' E 023°38'1716.7
2015-Aug-22 14:34N 37°41' E 023°46'2423.8
2015-Aug-22 13:32N 37°43' E 024°16'11 0.6
2015-Aug-21 19:30N 37°37' E 024°05'2223.3
2015-Aug-21 18:34N 37°45' E 023°40'1211.8
2015-Aug-21 17:33N 37°56' E 023°38'0 0.0
2015-Aug-21 16:33N 37°56' E 023°38'0 0.0
2015-Aug-21 15:33N 37°56' E 023°38'1211.9
2015-Aug-21 14:34N 37°45' E 023°43'2621.8
2015-Aug-21 13:23N 37°43' E 024°15'15 0.9
2015-Aug-20 20:24N 37°52' E 024°29'2425.7
2015-Aug-20 19:27N 37°37' E 024°05'2224.2
2015-Aug-20 18:34N 37°45' E 023°40'1211.7
2015-Aug-20 17:33N 37°56' E 023°38'0 0.0
2015-Aug-20 16:33N 37°56' E 023°38'0 0.0
2015-Aug-20 15:33N 37°56' E 023°38'0 0.0
2015-Aug-20 14:33N 37°56' E 023°38'0 0.0
2015-Aug-20 13:33N 37°56' E 023°38'0 0.0
2015-Aug-20 12:33N 37°56' E 023°38'0 0.0
2015-Aug-20 11:33N 37°56' E 023°38'0 0.0
2015-Aug-20 10:33N 37°56' E 023°38'0 0.0
2015-Aug-20 09:33N 37°56' E 023°38'0 0.0
2015-Aug-20 08:33N 37°56' E 023°38'0 0.0
2015-Aug-20 07:33N 37°56' E 023°38'0 0.0
2015-Aug-20 06:33N 37°56' E 023°38'0 0.0
2015-Aug-20 05:33N 37°56' E 023°38'1515.2
2015-Aug-20 04:34N 37°42' E 023°45'2525.2
2015-Aug-20 03:33N 37°31' E 024°13'2625.9
2015-Aug-20 02:34N 37°32' E 024°46'2625.6
2015-Aug-20 01:34N 37°32' E 025°18'2525.4
2015-Aug-20 00:33N 37°40' E 025°49'4218.9
2015-Aug-19 22:19N 37°48' E 026°41'  
Track history (hours):
 
Tides and Currents Weather Stations Pressure Air Temp Water Temp Dewpoint Dewpoint Depression Visibility Wind Speed Wind Dir Waves Ship Positions

Blue Star 1

Last reported at 2015-Aug-29 19:28 UTC. Time now 2015-Aug-30 14:04 UTC.
Position N 37°37' E 024°05'.

Length 176 m; draft 6.5 m.

Type: Passenger vessel. MMSI: 239710000.

Date/timePositionNaut miles runAvg speedWind from/ knotsBaromVisibWave heightAir tempDewpointWater temp
2015-Aug-29 19:28N 37°37' E 024°05'2123.6
2015-Aug-29 18:34N 37°44' E 023°40'1212.3
2015-Aug-29 17:33N 37°56' E 023°38'0 0.0
2015-Aug-29 16:33N 37°56' E 023°38'0 0.0
2015-Aug-29 15:33N 37°56' E 023°38'1212.5
2015-Aug-29 14:33N 37°45' E 023°43'2621.4
2015-Aug-29 13:20N 37°44' E 024°16'15 0.8
2015-Aug-28 19:16N 37°37' E 023°58'1724.0
2015-Aug-28 18:34N 37°45' E 023°39'1212.0
2015-Aug-28 17:34N 37°56' E 023°38'0 0.0
2015-Aug-28 16:33N 37°56' E 023°38'0 0.0
2015-Aug-28 15:34N 37°56' E 023°38'10 9.8
2015-Aug-28 14:34N 37°47' E 023°41'2721.8
2015-Aug-28 13:20N 37°43' E 024°15'2226.4
2015-Aug-28 12:30N 37°57' E 024°37'38 2.2
2015-Aug-27 19:21N 37°37' E 023°56'1721.1
2015-Aug-27 18:34N 37°47' E 023°38'9 9.2
2015-Aug-27 17:33N 37°56' E 023°38'0 0.0
2015-Aug-27 16:33N 37°56' E 023°38'0 0.0
2015-Aug-27 15:33N 37°56' E 023°38'0 0.0
2015-Aug-27 14:33N 37°56' E 023°38'0 0.0
2015-Aug-27 13:33N 37°56' E 023°38'0 0.0
2015-Aug-27 12:33N 37°56' E 023°38'0 0.0
2015-Aug-27 11:33N 37°56' E 023°38'0 0.0
2015-Aug-27 10:33N 37°56' E 023°38'0 0.0
2015-Aug-27 09:33N 37°56' E 023°38'0 0.0
2015-Aug-27 08:33N 37°56' E 023°38'0 0.0
2015-Aug-27 07:33N 37°56' E 023°38'0 0.0
2015-Aug-27 06:33N 37°56' E 023°38'1 0.7
2015-Aug-27 05:33N 37°56' E 023°37'2019.9
2015-Aug-27 04:33N 37°39' E 023°50'5024.9
2015-Aug-27 02:33N 37°32' E 024°53'2524.6
2015-Aug-27 01:33N 37°34' E 025°23'17611.4
2015-Aug-26 10:08N 40°26' E 024°34'1526.2
2015-Aug-26 09:34N 40°39' E 024°25'1616.4
2015-Aug-26 08:34N 40°56' E 024°25'0 0.0
2015-Aug-26 07:33N 40°56' E 024°25'0 0.0
2015-Aug-26 06:34N 40°56' E 024°25'1313.2
2015-Aug-26 05:34N 40°43' E 024°25'2825.8
2015-Aug-26 04:28N 40°17' E 024°42'16611.9
2015-Aug-25 14:34N 37°38' E 025°41'2525.4
2015-Aug-25 13:34N 37°30' E 025°10'5525.0
2015-Aug-25 11:22N 37°34' E 024°02'2025.1
2015-Aug-25 10:34N 37°44' E 023°39'1212.4
2015-Aug-25 09:33N 37°56' E 023°38'0 0.0
2015-Aug-25 08:33N 37°56' E 023°38'0 0.0
2015-Aug-25 07:33N 37°56' E 023°38'0 0.0
2015-Aug-25 06:33N 37°56' E 023°38'0 0.0
2015-Aug-25 05:33N 37°56' E 023°38'0 0.0
2015-Aug-25 04:33N 37°56' E 023°38'0 0.0
2015-Aug-25 03:33N 37°56' E 023°38'1010.2
2015-Aug-25 02:33N 37°47' E 023°42'2120.5
2015-Aug-25 01:32N 37°37' E 024°05'2522.9
2015-Aug-25 00:26N 37°52' E 024°30'31 1.1
2015-Aug-23 19:31N 37°37' E 023°56'1717.9
2015-Aug-23 18:34N 37°48' E 023°38'9 8.8
2015-Aug-23 17:34N 37°56' E 023°38'0 0.0
2015-Aug-23 16:33N 37°56' E 023°38'1515.0
2015-Aug-23 15:34N 37°43' E 023°45'2423.1
2015-Aug-23 14:31N 37°43' E 024°15'17 1.0
2015-Aug-22 20:32N 37°54' E 024°32'2725.6
2015-Aug-22 19:29N 37°37' E 024°05'2223.4
2015-Aug-22 18:33N 37°45' E 023°39'1211.5
2015-Aug-22 17:34N 37°56' E 023°38'0 0.0
2015-Aug-22 16:34N 37°56' E 023°38'0 0.0
2015-Aug-22 15:34N 37°56' E 023°38'1716.7
2015-Aug-22 14:34N 37°41' E 023°46'2423.8
2015-Aug-22 13:32N 37°43' E 024°16'11 0.6
2015-Aug-21 19:30N 37°37' E 024°05'2223.3
2015-Aug-21 18:34N 37°45' E 023°40'1211.8
2015-Aug-21 17:33N 37°56' E 023°38'0 0.0
2015-Aug-21 16:33N 37°56' E 023°38'0 0.0
2015-Aug-21 15:33N 37°56' E 023°38'1211.9
2015-Aug-21 14:34N 37°45' E 023°43'2621.8
2015-Aug-21 13:23N 37°43' E 024°15'15 0.9
2015-Aug-20 20:24N 37°52' E 024°29'2425.7
2015-Aug-20 19:27N 37°37' E 024°05'2224.2
2015-Aug-20 18:34N 37°45' E 023°40'1211.7
2015-Aug-20 17:33N 37°56' E 023°38'0 0.0
2015-Aug-20 16:33N 37°56' E 023°38'0 0.0
2015-Aug-20 15:33N 37°56' E 023°38'0 0.0
2015-Aug-20 14:33N 37°56' E 023°38'0 0.0
2015-Aug-20 13:33N 37°56' E 023°38'0 0.0
2015-Aug-20 12:33N 37°56' E 023°38'0 0.0
2015-Aug-20 11:33N 37°56' E 023°38'0 0.0
2015-Aug-20 10:33N 37°56' E 023°38'0 0.0
2015-Aug-20 09:33N 37°56' E 023°38'0 0.0
2015-Aug-20 08:33N 37°56' E 023°38'0 0.0
2015-Aug-20 07:33N 37°56' E 023°38'0 0.0
2015-Aug-20 06:33N 37°56' E 023°38'0 0.0
2015-Aug-20 05:33N 37°56' E 023°38'1515.2
2015-Aug-20 04:34N 37°42' E 023°45'2525.2
2015-Aug-20 03:33N 37°31' E 024°13'2625.9
2015-Aug-20 02:34N 37°32' E 024°46'2625.6
2015-Aug-20 01:34N 37°32' E 025°18'2525.4
2015-Aug-20 00:33N 37°40' E 025°49'4218.9
2015-Aug-19 22:19N 37°48' E 026°41'  

Dump ship's entire track history